Terminal Aerodrome Forecast
Issued by NWS Shreveport, LA

Home | Current Version | Previous Version | Text Only | Print | Product List | Glossary On
Versions: 1 2 3 4 5 6 7 8 9 10 11 12 13 14
000
FTUS44 KSHV 051133
TAFTYR
TAF
KTYR 051133Z 0512/0612 14010KT P6SM VCSH BKN015 BKN250
      TEMPO 0512/0516 BKN025
     FM051600 15014G24KT P6SM VCTS BKN040CB
      TEMPO 0518/0522 3SM -TSRA BR BKN030CB
     FM060000 15012KT P6SM VCTS SCT050CB OVC100
      TEMPO 0608/0612 P6SM NSW BKN015=

USA.gov is the U.S. government's official web portal to all federal, state and local government web resources and services.